sensor_id;sensor_type;location;lat;lon;timestamp;P1;durP1;ratioP1;P2;durP2;ratioP2
55170;SDS011;41060;47.510;8.680;2023-05-10T00:01:29;0.35;;;0.20;;
55170;SDS011;41060;47.510;8.680;2023-05-10T00:03:56;0.90;;;0.30;;
55170;SDS011;41060;47.510;8.680;2023-05-10T00:06:23;0.00;;;0.00;;
55170;SDS011;41060;47.510;8.680;2023-05-10T00:08:51;0.32;;;0.20;;
55170;SDS011;41060;47.510;8.680;2023-05-10T00:11:17;1.10;;;0.45;;
55170;SDS011;41060;47.510;8.680;2023-05-10T00:13:44;0.15;;;0.15;;
55170;SDS011;41060;47.510;8.680;2023-05-10T00:16:11;0.15;;;0.10;;
55170;SDS011;41060;47.510;8.680;2023-05-10T00:18:38;0.20;;;0.20;;
55170;SDS011;41060;47.510;8.680;2023-05-10T00:21:04;0.57;;;0.20;;
55170;SDS011;41060;47.510;8.680;2023-05-10T00:23:33;0.40;;;0.20;;
55170;SDS011;41060;47.510;8.680;2023-05-10T00:26:02;0.50;;;0.20;;
55170;SDS011;41060;47.510;8.680;2023-05-10T00:28:29;0.30;;;0.20;;
55170;SDS011;41060;47.510;8.680;2023-05-10T00:30:56;0.10;;;0.10;;
55170;SDS011;41060;47.510;8.680;2023-05-10T00:33:22;0.20;;;0.10;;
55170;SDS011;41060;47.510;8.680;2023-05-10T00:35:49;1.85;;;0.10;;
55170;SDS011;41060;47.510;8.680;2023-05-10T00:38:16;0.28;;;0.20;;
55170;SDS011;41060;47.510;8.680;2023-05-10T00:40:44;0.10;;;0.10;;
55170;SDS011;41060;47.510;8.680;2023-05-10T00:43:11;0.20;;;0.10;;
55170;SDS011;41060;47.510;8.680;2023-05-10T00:45:38;0.20;;;0.10;;
55170;SDS011;41060;47.510;8.680;2023-05-10T00:48:06;0.35;;;0.28;;
55170;SDS011;41060;47.510;8.680;2023-05-10T00:50:33;0.00;;;0.00;;
55170;SDS011;41060;47.510;8.680;2023-05-10T00:53:00;0.10;;;0.08;;
55170;SDS011;41060;47.510;8.680;2023-05-10T00:55:28;0.32;;;0.20;;
55170;SDS011;41060;47.510;8.680;2023-05-10T00:57:56;0.30;;;0.20;;
55170;SDS011;41060;47.510;8.680;2023-05-10T01:00:23;0.35;;;0.20;;
55170;SDS011;41060;47.510;8.680;2023-05-10T01:02:50;0.13;;;0.10;;
55170;SDS011;41060;47.510;8.680;2023-05-10T01:05:19;0.30;;;0.10;;
55170;SDS011;41060;47.510;8.680;2023-05-10T01:07:46;0.20;;;0.13;;
55170;SDS011;41060;47.510;8.680;2023-05-10T01:10:13;0.40;;;0.25;;
55170;SDS011;41060;47.510;8.680;2023-05-10T01:12:40;0.60;;;0.28;;
55170;SDS011;41060;47.510;8.680;2023-05-10T01:15:12;0.10;;;0.10;;
55170;SDS011;41060;47.510;8.680;2023-05-10T01:17:40;0.30;;;0.30;;
55170;SDS011;41060;47.510;8.680;2023-05-10T01:20:11;0.55;;;0.15;;
55170;SDS011;41060;47.510;8.680;2023-05-10T01:22:42;0.28;;;0.20;;
55170;SDS011;41060;47.510;8.680;2023-05-10T01:28:55;0.30;;;0.30;;
55170;SDS011;41060;47.510;8.680;2023-05-10T01:31:52;2.35;;;0.30;;
55170;SDS011;41060;47.510;8.680;2023-05-10T01:34:39;0.10;;;0.10;;
55170;SDS011;41060;47.510;8.680;2023-05-10T01:37:16;0.65;;;0.20;;
55170;SDS011;41060;47.510;8.680;2023-05-10T01:39:47;0.55;;;0.30;;
55170;SDS011;41060;47.510;8.680;2023-05-10T01:42:20;0.30;;;0.20;;
55170;SDS011;41060;47.510;8.680;2023-05-10T01:44:51;0.63;;;0.32;;
55170;SDS011;41060;47.510;8.680;2023-05-10T01:47:27;0.20;;;0.15;;
55170;SDS011;41060;47.510;8.680;2023-05-10T01:50:01;0.47;;;0.17;;
55170;SDS011;41060;47.510;8.680;2023-05-10T01:52:32;0.22;;;0.10;;
55170;SDS011;41060;47.510;8.680;2023-05-10T01:55:04;0.57;;;0.32;;
55170;SDS011;41060;47.510;8.680;2023-05-10T01:57:36;0.20;;;0.20;;
55170;SDS011;41060;47.510;8.680;2023-05-10T02:00:05;0.85;;;0.20;;
55170;SDS011;41060;47.510;8.680;2023-05-10T02:02:36;0.05;;;0.05;;
55170;SDS011;41060;47.510;8.680;2023-05-10T02:05:05;0.20;;;0.20;;
55170;SDS011;41060;47.510;8.680;2023-05-10T02:07:34;0.28;;;0.20;;
55170;SDS011;41060;47.510;8.680;2023-05-10T02:10:02;0.50;;;0.30;;
55170;SDS011;41060;47.510;8.680;2023-05-10T02:12:31;1.67;;;0.20;;
55170;SDS011;41060;47.510;8.680;2023-05-10T02:15:02;0.85;;;0.40;;
55170;SDS011;41060;47.510;8.680;2023-05-10T02:17:30;0.17;;;0.10;;
55170;SDS011;41060;47.510;8.680;2023-05-10T02:20:00;1.15;;;0.30;;
55170;SDS011;41060;47.510;8.680;2023-05-10T02:22:28;0.28;;;0.15;;
55170;SDS011;41060;47.510;8.680;2023-05-10T02:24:55;0.95;;;0.35;;
55170;SDS011;41060;47.510;8.680;2023-05-10T02:27:27;0.47;;;0.28;;
55170;SDS011;41060;47.510;8.680;2023-05-10T02:29:55;0.63;;;0.30;;
55170;SDS011;41060;47.510;8.680;2023-05-10T02:32:24;0.30;;;0.20;;
55170;SDS011;41060;47.510;8.680;2023-05-10T02:34:52;0.10;;;0.10;;
55170;SDS011;41060;47.510;8.680;2023-05-10T02:37:21;0.20;;;0.20;;
55170;SDS011;41060;47.510;8.680;2023-05-10T02:39:49;0.75;;;0.40;;
55170;SDS011;41060;47.510;8.680;2023-05-10T02:42:19;0.13;;;0.10;;
55170;SDS011;41060;47.510;8.680;2023-05-10T02:44:50;5.00;;;0.52;;
55170;SDS011;41060;47.510;8.680;2023-05-10T02:47:19;0.70;;;0.40;;
55170;SDS011;41060;47.510;8.680;2023-05-10T02:49:46;0.63;;;0.40;;
55170;SDS011;41060;47.510;8.680;2023-05-10T02:52:14;0.75;;;0.43;;
55170;SDS011;41060;47.510;8.680;2023-05-10T02:54:49;0.55;;;0.40;;
55170;SDS011;41060;47.510;8.680;2023-05-10T02:57:20;0.37;;;0.20;;
55170;SDS011;41060;47.510;8.680;2023-05-10T02:59:51;4.20;;;0.47;;
55170;SDS011;41060;47.510;8.680;2023-05-10T03:02:18;2.45;;;0.60;;
55170;SDS011;41060;47.510;8.680;2023-05-10T03:04:44;1.00;;;0.50;;
55170;SDS011;41060;47.510;8.680;2023-05-10T03:07:14;3.70;;;0.50;;
55170;SDS011;41060;47.510;8.680;2023-05-10T03:09:41;0.10;;;0.10;;
55170;SDS011;41060;47.510;8.680;2023-05-10T03:12:11;0.60;;;0.40;;
55170;SDS011;41060;47.510;8.680;2023-05-10T03:14:45;0.50;;;0.35;;
55170;SDS011;41060;47.510;8.680;2023-05-10T03:17:21;0.70;;;0.50;;
55170;SDS011;41060;47.510;8.680;2023-05-10T03:19:53;1.10;;;0.43;;
55170;SDS011;41060;47.510;8.680;2023-05-10T03:22:23;0.63;;;0.57;;
55170;SDS011;41060;47.510;8.680;2023-05-10T03:24:53;0.73;;;0.30;;
55170;SDS011;41060;47.510;8.680;2023-05-10T03:27:23;2.40;;;0.80;;
55170;SDS011;41060;47.510;8.680;2023-05-10T03:29:52;0.60;;;0.40;;
55170;SDS011;41060;47.510;8.680;2023-05-10T03:32:21;0.28;;;0.22;;
55170;SDS011;41060;47.510;8.680;2023-05-10T03:34:48;0.68;;;0.40;;
55170;SDS011;41060;47.510;8.680;2023-05-10T03:37:15;1.65;;;0.93;;
55170;SDS011;41060;47.510;8.680;2023-05-10T03:39:42;1.05;;;0.57;;
55170;SDS011;41060;47.510;8.680;2023-05-10T03:42:08;1.65;;;0.52;;
55170;SDS011;41060;47.510;8.680;2023-05-10T03:44:38;1.38;;;0.60;;
55170;SDS011;41060;47.510;8.680;2023-05-10T03:47:05;5.40;;;0.68;;
55170;SDS011;41060;47.510;8.680;2023-05-10T03:49:31;1.30;;;0.50;;
55170;SDS011;41060;47.510;8.680;2023-05-10T03:51:58;1.23;;;0.50;;
55170;SDS011;41060;47.510;8.680;2023-05-10T03:54:25;0.30;;;0.30;;
55170;SDS011;41060;47.510;8.680;2023-05-10T03:56:51;0.63;;;0.50;;
55170;SDS011;41060;47.510;8.680;2023-05-10T03:59:18;0.80;;;0.47;;
55170;SDS011;41060;47.510;8.680;2023-05-10T04:01:47;0.47;;;0.43;;
55170;SDS011;41060;47.510;8.680;2023-05-10T04:04:13;0.90;;;0.60;;
55170;SDS011;41060;47.510;8.680;2023-05-10T04:06:40;0.82;;;0.55;;
55170;SDS011;41060;47.510;8.680;2023-05-10T04:09:07;2.65;;;0.80;;
55170;SDS011;41060;47.510;8.680;2023-05-10T04:11:34;0.88;;;0.60;;
55170;SDS011;41060;47.510;8.680;2023-05-10T04:14:00;0.85;;;0.50;;
55170;SDS011;41060;47.510;8.680;2023-05-10T04:16:27;0.93;;;0.70;;
55170;SDS011;41060;47.510;8.680;2023-05-10T04:18:55;0.88;;;0.88;;
55170;SDS011;41060;47.510;8.680;2023-05-10T04:21:22;2.97;;;0.80;;
55170;SDS011;41060;47.510;8.680;2023-05-10T04:23:50;2.47;;;0.82;;
55170;SDS011;41060;47.510;8.680;2023-05-10T04:26:16;0.82;;;0.55;;
55170;SDS011;41060;47.510;8.680;2023-05-10T04:28:43;0.82;;;0.60;;
55170;SDS011;41060;47.510;8.680;2023-05-10T04:31:10;1.42;;;0.85;;
55170;SDS011;41060;47.510;8.680;2023-05-10T04:33:37;1.60;;;0.95;;
55170;SDS011;41060;47.510;8.680;2023-05-10T04:36:05;1.02;;;0.55;;
55170;SDS011;41060;47.510;8.680;2023-05-10T04:38:32;0.70;;;0.55;;
55170;SDS011;41060;47.510;8.680;2023-05-10T04:41:05;0.95;;;0.73;;
55170;SDS011;41060;47.510;8.680;2023-05-10T04:43:33;1.27;;;0.75;;
55170;SDS011;41060;47.510;8.680;2023-05-10T04:46:00;1.73;;;0.77;;
55170;SDS011;41060;47.510;8.680;2023-05-10T04:48:26;1.13;;;0.88;;
55170;SDS011;41060;47.510;8.680;2023-05-10T04:50:54;0.73;;;0.50;;
55170;SDS011;41060;47.510;8.680;2023-05-10T04:53:21;1.20;;;0.93;;
55170;SDS011;41060;47.510;8.680;2023-05-10T04:55:48;0.93;;;0.77;;
55170;SDS011;41060;47.510;8.680;2023-05-10T04:58:15;0.80;;;0.65;;
55170;SDS011;41060;47.510;8.680;2023-05-10T05:00:42;1.02;;;0.50;;
55170;SDS011;41060;47.510;8.680;2023-05-10T05:03:09;1.45;;;0.80;;
55170;SDS011;41060;47.510;8.680;2023-05-10T05:05:36;1.13;;;0.82;;
55170;SDS011;41060;47.510;8.680;2023-05-10T05:08:02;1.92;;;0.70;;
55170;SDS011;41060;47.510;8.680;2023-05-10T05:10:31;2.25;;;0.77;;
55170;SDS011;41060;47.510;8.680;2023-05-10T05:13:01;5.68;;;1.05;;
55170;SDS011;41060;47.510;8.680;2023-05-10T05:15:27;1.05;;;0.73;;
55170;SDS011;41060;47.510;8.680;2023-05-10T05:17:55;0.93;;;0.55;;
55170;SDS011;41060;47.510;8.680;2023-05-10T05:20:22;1.25;;;0.68;;
55170;SDS011;41060;47.510;8.680;2023-05-10T05:22:49;1.10;;;0.70;;
55170;SDS011;41060;47.510;8.680;2023-05-10T05:25:15;1.42;;;0.80;;
55170;SDS011;41060;47.510;8.680;2023-05-10T05:27:44;1.55;;;0.70;;
55170;SDS011;41060;47.510;8.680;2023-05-10T05:30:10;1.33;;;0.60;;
55170;SDS011;41060;47.510;8.680;2023-05-10T05:32:37;1.30;;;0.65;;
55170;SDS011;41060;47.510;8.680;2023-05-10T05:35:07;0.50;;;0.40;;
55170;SDS011;41060;47.510;8.680;2023-05-10T05:37:34;1.20;;;0.77;;
55170;SDS011;41060;47.510;8.680;2023-05-10T05:40:02;1.05;;;0.77;;
55170;SDS011;41060;47.510;8.680;2023-05-10T05:42:30;1.55;;;0.60;;
55170;SDS011;41060;47.510;8.680;2023-05-10T05:44:58;0.90;;;0.60;;
55170;SDS011;41060;47.510;8.680;2023-05-10T05:47:25;1.17;;;0.70;;
55170;SDS011;41060;47.510;8.680;2023-05-10T05:49:52;1.20;;;0.80;;
55170;SDS011;41060;47.510;8.680;2023-05-10T05:52:19;2.28;;;0.88;;
55170;SDS011;41060;47.510;8.680;2023-05-10T05:54:46;3.78;;;0.75;;
55170;SDS011;41060;47.510;8.680;2023-05-10T05:57:13;0.85;;;0.50;;
55170;SDS011;41060;47.510;8.680;2023-05-10T05:59:39;1.30;;;0.65;;
55170;SDS011;41060;47.510;8.680;2023-05-10T06:02:10;1.67;;;0.60;;
55170;SDS011;41060;47.510;8.680;2023-05-10T06:04:37;0.85;;;0.45;;
55170;SDS011;41060;47.510;8.680;2023-05-10T06:07:03;1.45;;;0.98;;
55170;SDS011;41060;47.510;8.680;2023-05-10T06:09:30;2.15;;;0.80;;
55170;SDS011;41060;47.510;8.680;2023-05-10T06:11:57;1.10;;;0.75;;
55170;SDS011;41060;47.510;8.680;2023-05-10T06:14:23;1.23;;;0.82;;
55170;SDS011;41060;47.510;8.680;2023-05-10T06:16:50;2.10;;;0.80;;
55170;SDS011;41060;47.510;8.680;2023-05-10T06:19:18;1.02;;;0.63;;
55170;SDS011;41060;47.510;8.680;2023-05-10T06:21:45;1.20;;;0.80;;
55170;SDS011;41060;47.510;8.680;2023-05-10T06:24:11;1.75;;;0.60;;
55170;SDS011;41060;47.510;8.680;2023-05-10T06:26:39;1.33;;;0.88;;
55170;SDS011;41060;47.510;8.680;2023-05-10T06:29:05;1.50;;;1.15;;
55170;SDS011;41060;47.510;8.680;2023-05-10T06:31:32;2.53;;;0.90;;
55170;SDS011;41060;47.510;8.680;2023-05-10T06:33:59;0.90;;;0.80;;
55170;SDS011;41060;47.510;8.680;2023-05-10T06:36:27;1.00;;;0.70;;
55170;SDS011;41060;47.510;8.680;2023-05-10T06:38:53;2.65;;;0.70;;
55170;SDS011;41060;47.510;8.680;2023-05-10T06:41:20;2.22;;;0.85;;
55170;SDS011;41060;47.510;8.680;2023-05-10T06:43:47;1.27;;;0.80;;
55170;SDS011;41060;47.510;8.680;2023-05-10T06:46:13;0.68;;;0.50;;
55170;SDS011;41060;47.510;8.680;2023-05-10T06:48:40;0.85;;;0.60;;
55170;SDS011;41060;47.510;8.680;2023-05-10T06:51:07;1.45;;;0.63;;
55170;SDS011;41060;47.510;8.680;2023-05-10T06:53:34;0.65;;;0.38;;
55170;SDS011;41060;47.510;8.680;2023-05-10T06:56:02;0.60;;;0.50;;
55170;SDS011;41060;47.510;8.680;2023-05-10T06:58:28;0.75;;;0.57;;
55170;SDS011;41060;47.510;8.680;2023-05-10T07:01:01;0.22;;;0.22;;
55170;SDS011;41060;47.510;8.680;2023-05-10T07:05:59;0.35;;;0.17;;
55170;SDS011;41060;47.510;8.680;2023-05-10T07:08:28;0.50;;;0.50;;
55170;SDS011;41060;47.510;8.680;2023-05-10T07:11:00;0.20;;;0.20;;
55170;SDS011;41060;47.510;8.680;2023-05-10T07:13:28;0.35;;;0.20;;
55170;SDS011;41060;47.510;8.680;2023-05-10T07:15:55;0.63;;;0.32;;
55170;SDS011;41060;47.510;8.680;2023-05-10T07:18:22;0.80;;;0.45;;
55170;SDS011;41060;47.510;8.680;2023-05-10T07:20:48;0.55;;;0.20;;
55170;SDS011;41060;47.510;8.680;2023-05-10T07:23:16;0.35;;;0.20;;
55170;SDS011;41060;47.510;8.680;2023-05-10T07:25:44;2.65;;;0.30;;
55170;SDS011;41060;47.510;8.680;2023-05-10T07:28:12;0.60;;;0.40;;
55170;SDS011;41060;47.510;8.680;2023-05-10T07:30:40;1.15;;;0.40;;
55170;SDS011;41060;47.510;8.680;2023-05-10T07:33:07;0.82;;;0.43;;
55170;SDS011;41060;47.510;8.680;2023-05-10T07:35:34;1.42;;;0.40;;
55170;SDS011;41060;47.510;8.680;2023-05-10T07:38:01;0.20;;;0.20;;
55170;SDS011;41060;47.510;8.680;2023-05-10T07:40:28;0.75;;;0.20;;
55170;SDS011;41060;47.510;8.680;2023-05-10T07:42:55;0.35;;;0.22;;
55170;SDS011;41060;47.510;8.680;2023-05-10T07:45:24;0.38;;;0.30;;
55170;SDS011;41060;47.510;8.680;2023-05-10T07:47:50;0.60;;;0.30;;
55170;SDS011;41060;47.510;8.680;2023-05-10T07:50:16;0.40;;;0.25;;
55170;SDS011;41060;47.510;8.680;2023-05-10T07:52:44;0.75;;;0.38;;
55170;SDS011;41060;47.510;8.680;2023-05-10T07:55:10;0.40;;;0.40;;
55170;SDS011;41060;47.510;8.680;2023-05-10T07:57:37;0.40;;;0.38;;
55170;SDS011;41060;47.510;8.680;2023-05-10T08:00:05;0.65;;;0.40;;
55170;SDS011;41060;47.510;8.680;2023-05-10T08:02:36;0.50;;;0.50;;
55170;SDS011;41060;47.510;8.680;2023-05-10T08:05:03;1.88;;;0.60;;
55170;SDS011;41060;47.510;8.680;2023-05-10T08:07:31;2.30;;;0.40;;
55170;SDS011;41060;47.510;8.680;2023-05-10T08:09:57;2.13;;;0.40;;
55170;SDS011;41060;47.510;8.680;2023-05-10T08:12:24;0.70;;;0.43;;
55170;SDS011;41060;47.510;8.680;2023-05-10T08:14:51;0.68;;;0.30;;
55170;SDS011;41060;47.510;8.680;2023-05-10T08:17:17;0.82;;;0.52;;
55170;SDS011;41060;47.510;8.680;2023-05-10T08:19:45;0.82;;;0.60;;
55170;SDS011;41060;47.510;8.680;2023-05-10T08:22:12;0.40;;;0.40;;
55170;SDS011;41060;47.510;8.680;2023-05-10T08:24:39;3.10;;;0.65;;
55170;SDS011;41060;47.510;8.680;2023-05-10T08:27:07;0.35;;;0.35;;
55170;SDS011;41060;47.510;8.680;2023-05-10T08:29:34;3.92;;;1.00;;
55170;SDS011;41060;47.510;8.680;2023-05-10T08:32:01;0.60;;;0.50;;
55170;SDS011;41060;47.510;8.680;2023-05-10T08:34:27;1.10;;;0.38;;
55170;SDS011;41060;47.510;8.680;2023-05-10T08:36:56;1.40;;;0.50;;
55170;SDS011;41060;47.510;8.680;2023-05-10T08:39:22;1.85;;;0.60;;
55170;SDS011;41060;47.510;8.680;2023-05-10T08:41:49;1.77;;;0.52;;
55170;SDS011;41060;47.510;8.680;2023-05-10T08:44:18;3.15;;;0.47;;
55170;SDS011;41060;47.510;8.680;2023-05-10T08:46:46;0.80;;;0.40;;
55170;SDS011;41060;47.510;8.680;2023-05-10T08:49:18;1.17;;;0.85;;
55170;SDS011;41060;47.510;8.680;2023-05-10T08:51:47;1.85;;;0.60;;
55170;SDS011;41060;47.510;8.680;2023-05-10T08:54:19;0.80;;;0.30;;
55170;SDS011;41060;47.510;8.680;2023-05-10T08:56:47;0.85;;;0.50;;
55170;SDS011;41060;47.510;8.680;2023-05-10T08:59:14;0.77;;;0.30;;
55170;SDS011;41060;47.510;8.680;2023-05-10T09:01:42;1.42;;;0.35;;
55170;SDS011;41060;47.510;8.680;2023-05-10T09:04:10;0.60;;;0.40;;
55170;SDS011;41060;47.510;8.680;2023-05-10T09:06:37;2.72;;;0.52;;
55170;SDS011;41060;47.510;8.680;2023-05-10T09:09:05;2.33;;;0.40;;
55170;SDS011;41060;47.510;8.680;2023-05-10T09:11:32;0.63;;;0.43;;
55170;SDS011;41060;47.510;8.680;2023-05-10T09:14:00;3.80;;;0.88;;
55170;SDS011;41060;47.510;8.680;2023-05-10T09:16:27;0.43;;;0.32;;
55170;SDS011;41060;47.510;8.680;2023-05-10T09:18:54;0.47;;;0.32;;
55170;SDS011;41060;47.510;8.680;2023-05-10T09:21:20;0.60;;;0.40;;
55170;SDS011;41060;47.510;8.680;2023-05-10T09:23:48;0.82;;;0.38;;
55170;SDS011;41060;47.510;8.680;2023-05-10T09:26:15;1.55;;;0.63;;
55170;SDS011;41060;47.510;8.680;2023-05-10T09:28:53;2.10;;;0.57;;
55170;SDS011;41060;47.510;8.680;2023-05-10T09:31:21;0.75;;;0.50;;
55170;SDS011;41060;47.510;8.680;2023-05-10T09:33:49;1.17;;;0.40;;
55170;SDS011;41060;47.510;8.680;2023-05-10T09:36:19;1.08;;;0.43;;
55170;SDS011;41060;47.510;8.680;2023-05-10T09:38:47;0.60;;;0.40;;
55170;SDS011;41060;47.510;8.680;2023-05-10T09:41:17;1.42;;;0.55;;
55170;SDS011;41060;47.510;8.680;2023-05-10T09:43:45;3.65;;;0.65;;
55170;SDS011;41060;47.510;8.680;2023-05-10T09:46:14;1.35;;;0.43;;
55170;SDS011;41060;47.510;8.680;2023-05-10T09:48:44;0.75;;;0.57;;
55170;SDS011;41060;47.510;8.680;2023-05-10T09:51:18;0.75;;;0.50;;
55170;SDS011;41060;47.510;8.680;2023-05-10T09:53:45;1.35;;;0.57;;
55170;SDS011;41060;47.510;8.680;2023-05-10T09:56:12;1.15;;;0.65;;
55170;SDS011;41060;47.510;8.680;2023-05-10T09:58:39;2.22;;;0.50;;
55170;SDS011;41060;47.510;8.680;2023-05-10T10:01:10;1.63;;;0.60;;
55170;SDS011;41060;47.510;8.680;2023-05-10T10:03:42;0.82;;;0.60;;
55170;SDS011;41060;47.510;8.680;2023-05-10T10:06:09;2.35;;;0.63;;
55170;SDS011;41060;47.510;8.680;2023-05-10T10:08:35;2.33;;;0.60;;
55170;SDS011;41060;47.510;8.680;2023-05-10T10:11:03;1.23;;;0.50;;
55170;SDS011;41060;47.510;8.680;2023-05-10T10:13:30;1.95;;;0.73;;
55170;SDS011;41060;47.510;8.680;2023-05-10T10:15:57;1.00;;;0.32;;
55170;SDS011;41060;47.510;8.680;2023-05-10T10:18:25;1.15;;;0.55;;
55170;SDS011;41060;47.510;8.680;2023-05-10T10:20:55;1.58;;;0.70;;
55170;SDS011;41060;47.510;8.680;2023-05-10T10:23:22;0.60;;;0.43;;
55170;SDS011;41060;47.510;8.680;2023-05-10T10:25:49;1.20;;;0.40;;
55170;SDS011;41060;47.510;8.680;2023-05-10T10:28:21;3.05;;;0.50;;
55170;SDS011;41060;47.510;8.680;2023-05-10T10:30:53;0.75;;;0.60;;
55170;SDS011;41060;47.510;8.680;2023-05-10T10:33:28;1.63;;;0.60;;
55170;SDS011;41060;47.510;8.680;2023-05-10T10:36:04;0.80;;;0.30;;
55170;SDS011;41060;47.510;8.680;2023-05-10T10:41:27;0.65;;;0.45;;
55170;SDS011;41060;47.510;8.680;2023-05-10T10:47:00;0.63;;;0.43;;
55170;SDS011;41060;47.510;8.680;2023-05-10T10:49:36;2.55;;;0.88;;
55170;SDS011;41060;47.510;8.680;2023-05-10T10:52:25;1.00;;;0.50;;
55170;SDS011;41060;47.510;8.680;2023-05-10T10:54:57;1.50;;;0.52;;
55170;SDS011;41060;47.510;8.680;2023-05-10T10:57:27;1.00;;;0.60;;
55170;SDS011;41060;47.510;8.680;2023-05-10T11:02:49;1.50;;;0.77;;
55170;SDS011;41060;47.510;8.680;2023-05-10T11:08:16;1.00;;;0.28;;
55170;SDS011;41060;47.510;8.680;2023-05-10T11:11:02;0.45;;;0.38;;
55170;SDS011;41060;47.510;8.680;2023-05-10T11:13:32;0.47;;;0.35;;
55170;SDS011;41060;47.510;8.680;2023-05-10T11:16:09;0.82;;;0.20;;
55170;SDS011;41060;47.510;8.680;2023-05-10T11:18:40;1.35;;;0.55;;
55170;SDS011;41060;47.510;8.680;2023-05-10T11:21:18;2.53;;;0.55;;
55170;SDS011;41060;47.510;8.680;2023-05-10T11:23:51;0.90;;;0.45;;
55170;SDS011;41060;47.510;8.680;2023-05-10T11:26:21;0.90;;;0.50;;
55170;SDS011;41060;47.510;8.680;2023-05-10T11:28:51;1.80;;;0.38;;
55170;SDS011;41060;47.510;8.680;2023-05-10T11:31:20;3.17;;;0.52;;
55170;SDS011;41060;47.510;8.680;2023-05-10T11:33:49;1.48;;;0.73;;
55170;SDS011;41060;47.510;8.680;2023-05-10T11:36:17;1.23;;;0.60;;
55170;SDS011;41060;47.510;8.680;2023-05-10T11:38:45;0.60;;;0.32;;
55170;SDS011;41060;47.510;8.680;2023-05-10T11:41:14;0.73;;;0.57;;
55170;SDS011;41060;47.510;8.680;2023-05-10T11:43:43;2.47;;;0.40;;
55170;SDS011;41060;47.510;8.680;2023-05-10T11:46:14;0.95;;;0.35;;
55170;SDS011;41060;47.510;8.680;2023-05-10T11:48:41;1.48;;;0.43;;
55170;SDS011;41060;47.510;8.680;2023-05-10T11:51:10;0.75;;;0.32;;
55170;SDS011;41060;47.510;8.680;2023-05-10T11:53:37;6.05;;;0.88;;
55170;SDS011;41060;47.510;8.680;2023-05-10T11:56:04;0.43;;;0.35;;
55170;SDS011;41060;47.510;8.680;2023-05-10T11:58:33;0.30;;;0.30;;
55170;SDS011;41060;47.510;8.680;2023-05-10T12:01:00;2.70;;;0.40;;
55170;SDS011;41060;47.510;8.680;2023-05-10T12:03:28;1.08;;;0.22;;
55170;SDS011;41060;47.510;8.680;2023-05-10T12:05:56;1.10;;;0.35;;
55170;SDS011;41060;47.510;8.680;2023-05-10T12:08:24;0.93;;;0.52;;
55170;SDS011;41060;47.510;8.680;2023-05-10T12:10:51;0.47;;;0.32;;
55170;SDS011;41060;47.510;8.680;2023-05-10T12:13:19;2.05;;;0.45;;
55170;SDS011;41060;47.510;8.680;2023-05-10T12:15:47;3.00;;;0.40;;
55170;SDS011;41060;47.510;8.680;2023-05-10T12:18:14;1.75;;;0.43;;
55170;SDS011;41060;47.510;8.680;2023-05-10T12:20:51;2.83;;;0.65;;
55170;SDS011;41060;47.510;8.680;2023-05-10T12:23:18;0.85;;;0.40;;
55170;SDS011;41060;47.510;8.680;2023-05-10T12:25:46;3.33;;;0.30;;
55170;SDS011;41060;47.510;8.680;2023-05-10T12:28:13;1.40;;;0.43;;
55170;SDS011;41060;47.510;8.680;2023-05-10T12:30:39;0.75;;;0.40;;
55170;SDS011;41060;47.510;8.680;2023-05-10T12:33:11;2.10;;;0.70;;
55170;SDS011;41060;47.510;8.680;2023-05-10T12:35:44;0.25;;;0.25;;
55170;SDS011;41060;47.510;8.680;2023-05-10T12:38:26;2.63;;;0.50;;
55170;SDS011;41060;47.510;8.680;2023-05-10T12:40:56;1.45;;;0.25;;
55170;SDS011;41060;47.510;8.680;2023-05-10T12:43:23;0.40;;;0.30;;
55170;SDS011;41060;47.510;8.680;2023-05-10T12:45:50;0.65;;;0.35;;
55170;SDS011;41060;47.510;8.680;2023-05-10T12:48:18;2.60;;;0.32;;
55170;SDS011;41060;47.510;8.680;2023-05-10T12:50:45;1.05;;;0.55;;
55170;SDS011;41060;47.510;8.680;2023-05-10T12:53:12;0.85;;;0.60;;
55170;SDS011;41060;47.510;8.680;2023-05-10T12:55:41;1.75;;;0.65;;
55170;SDS011;41060;47.510;8.680;2023-05-10T12:58:07;0.98;;;0.55;;
55170;SDS011;41060;47.510;8.680;2023-05-10T13:00:34;0.65;;;0.55;;
55170;SDS011;41060;47.510;8.680;2023-05-10T13:03:01;0.82;;;0.47;;
55170;SDS011;41060;47.510;8.680;2023-05-10T13:05:29;1.63;;;0.40;;
55170;SDS011;41060;47.510;8.680;2023-05-10T13:07:55;0.47;;;0.35;;
55170;SDS011;41060;47.510;8.680;2023-05-10T13:10:22;4.13;;;0.60;;
55170;SDS011;41060;47.510;8.680;2023-05-10T13:12:50;4.28;;;0.50;;
55170;SDS011;41060;47.510;8.680;2023-05-10T13:15:16;1.67;;;0.45;;
55170;SDS011;41060;47.510;8.680;2023-05-10T13:17:43;0.95;;;0.40;;
55170;SDS011;41060;47.510;8.680;2023-05-10T13:20:10;0.90;;;0.60;;
55170;SDS011;41060;47.510;8.680;2023-05-10T13:22:39;1.45;;;0.68;;
55170;SDS011;41060;47.510;8.680;2023-05-10T13:25:06;4.70;;;0.60;;
55170;SDS011;41060;47.510;8.680;2023-05-10T13:27:33;2.30;;;0.60;;
55170;SDS011;41060;47.510;8.680;2023-05-10T13:30:01;1.38;;;0.57;;
55170;SDS011;41060;47.510;8.680;2023-05-10T13:32:28;6.30;;;0.75;;
55170;SDS011;41060;47.510;8.680;2023-05-10T13:34:55;2.08;;;0.45;;
55170;SDS011;41060;47.510;8.680;2023-05-10T13:37:22;0.85;;;0.63;;
55170;SDS011;41060;47.510;8.680;2023-05-10T13:39:51;2.40;;;0.50;;
55170;SDS011;41060;47.510;8.680;2023-05-10T13:42:17;1.15;;;0.55;;
55170;SDS011;41060;47.510;8.680;2023-05-10T13:44:44;2.95;;;0.60;;
55170;SDS011;41060;47.510;8.680;2023-05-10T13:47:11;1.83;;;0.68;;
55170;SDS011;41060;47.510;8.680;2023-05-10T13:49:37;1.85;;;0.50;;
55170;SDS011;41060;47.510;8.680;2023-05-10T13:52:04;2.33;;;0.80;;
55170;SDS011;41060;47.510;8.680;2023-05-10T13:54:32;0.60;;;0.40;;
55170;SDS011;41060;47.510;8.680;2023-05-10T13:57:00;1.00;;;0.52;;
55170;SDS011;41060;47.510;8.680;2023-05-10T13:59:28;4.78;;;0.75;;
55170;SDS011;41060;47.510;8.680;2023-05-10T14:01:57;1.45;;;0.52;;
55170;SDS011;41060;47.510;8.680;2023-05-10T14:04:23;1.88;;;0.52;;
55170;SDS011;41060;47.510;8.680;2023-05-10T14:06:50;2.20;;;0.60;;
55170;SDS011;41060;47.510;8.680;2023-05-10T14:09:18;0.57;;;0.52;;
55170;SDS011;41060;47.510;8.680;2023-05-10T14:11:45;2.08;;;0.68;;
55170;SDS011;41060;47.510;8.680;2023-05-10T14:14:13;3.25;;;0.73;;
55170;SDS011;41060;47.510;8.680;2023-05-10T14:16:41;1.35;;;0.55;;
55170;SDS011;41060;47.510;8.680;2023-05-10T14:19:08;1.40;;;0.80;;
55170;SDS011;41060;47.510;8.680;2023-05-10T14:21:35;0.85;;;0.65;;
55170;SDS011;41060;47.510;8.680;2023-05-10T14:24:02;1.20;;;0.60;;
55170;SDS011;41060;47.510;8.680;2023-05-10T14:26:29;3.53;;;0.77;;
55170;SDS011;41060;47.510;8.680;2023-05-10T14:28:56;1.10;;;0.75;;
55170;SDS011;41060;47.510;8.680;2023-05-10T14:31:25;1.23;;;0.60;;
55170;SDS011;41060;47.510;8.680;2023-05-10T14:33:52;2.53;;;0.68;;
55170;SDS011;41060;47.510;8.680;2023-05-10T14:36:19;3.08;;;0.63;;
55170;SDS011;41060;47.510;8.680;2023-05-10T14:38:46;0.98;;;0.55;;
55170;SDS011;41060;47.510;8.680;2023-05-10T14:41:12;1.63;;;0.43;;
55170;SDS011;41060;47.510;8.680;2023-05-10T14:43:40;1.17;;;0.50;;
55170;SDS011;41060;47.510;8.680;2023-05-10T14:46:07;0.88;;;0.50;;
55170;SDS011;41060;47.510;8.680;2023-05-10T14:48:36;1.27;;;0.85;;
55170;SDS011;41060;47.510;8.680;2023-05-10T14:51:02;1.55;;;0.75;;
55170;SDS011;41060;47.510;8.680;2023-05-10T14:53:30;0.80;;;0.50;;
55170;SDS011;41060;47.510;8.680;2023-05-10T14:55:57;1.85;;;0.75;;
55170;SDS011;41060;47.510;8.680;2023-05-10T14:58:25;1.02;;;0.30;;
55170;SDS011;41060;47.510;8.680;2023-05-10T15:00:52;6.85;;;0.63;;
55170;SDS011;41060;47.510;8.680;2023-05-10T15:03:19;2.75;;;0.80;;
55170;SDS011;41060;47.510;8.680;2023-05-10T15:05:47;0.50;;;0.43;;
55170;SDS011;41060;47.510;8.680;2023-05-10T15:08:17;2.30;;;0.80;;
55170;SDS011;41060;47.510;8.680;2023-05-10T15:10:43;3.35;;;0.70;;
55170;SDS011;41060;47.510;8.680;2023-05-10T15:13:09;2.97;;;0.60;;